createdAt,value
2023-01-12T00:02:17.124Z,86.46
2023-01-12T00:04:44.352Z,86.30
2023-01-12T00:07:13.393Z,87.58
2023-01-12T00:09:40.851Z,86.48
2023-01-12T00:12:11.562Z,87.71
2023-01-12T00:14:39.410Z,86.96
2023-01-12T00:17:07.025Z,86.26
2023-01-12T00:19:34.395Z,86.34
2023-01-12T00:22:06.217Z,86.31
2023-01-12T00:24:41.878Z,85.53
2023-01-12T00:27:13.279Z,86.30
2023-01-12T00:29:41.018Z,86.28
2023-01-12T00:32:13.047Z,86.95
2023-01-12T00:34:40.044Z,87.17
2023-01-12T00:37:07.431Z,88.02
2023-01-12T00:39:40.781Z,87.02
2023-01-12T00:42:31.563Z,86.51
2023-01-12T00:45:17.084Z,86.56
2023-01-12T00:47:44.236Z,87.35
2023-01-12T00:50:11.317Z,87.45
2023-01-12T00:52:38.366Z,86.70
2023-01-12T00:55:05.830Z,86.13
2023-01-12T00:57:32.908Z,87.42
2023-01-12T01:00:00.487Z,87.01
2023-01-12T01:02:28.730Z,87.59
2023-01-12T01:04:55.979Z,87.05
2023-01-12T01:07:23.639Z,86.36
2023-01-12T01:09:51.709Z,86.17
2023-01-12T01:12:19.512Z,87.23
2023-01-12T01:14:47.953Z,88.67
2023-01-12T01:17:15.272Z,87.80
2023-01-12T01:19:43.871Z,87.05
2023-01-12T01:22:14.308Z,87.43
2023-01-12T01:24:42.353Z,86.52
2023-01-12T01:27:09.635Z,87.19
2023-01-12T01:29:36.893Z,86.20
2023-01-12T01:32:04.081Z,86.77
2023-01-12T01:34:31.265Z,86.51
2023-01-12T01:36:59.466Z,87.40
2023-01-12T01:39:26.658Z,85.79
2023-01-12T01:41:53.818Z,86.90
2023-01-12T01:44:30.022Z,87.23
2023-01-12T01:46:59.869Z,86.56
2023-01-12T01:49:42.104Z,86.88
2023-01-12T01:52:14.699Z,86.98
2023-01-12T01:54:50.842Z,87.52
2023-01-12T01:57:18.557Z,86.94
2023-01-12T01:59:51.740Z,87.00
2023-01-12T02:02:19.225Z,87.67
2023-01-12T02:04:46.658Z,87.58
2023-01-12T02:07:13.707Z,86.74
2023-01-12T02:09:41.073Z,87.09
2023-01-12T02:12:27.062Z,86.41
2023-01-12T02:15:14.222Z,86.59
2023-01-12T02:17:59.109Z,87.15
2023-01-12T02:21:05.193Z,86.83
2023-01-12T02:23:53.819Z,87.38
2023-01-12T02:26:52.345Z,87.62
2023-01-12T02:29:34.236Z,87.08
2023-01-12T02:32:20.149Z,87.66
2023-01-12T02:35:18.044Z,87.13
2023-01-12T02:38:09.403Z,86.67
2023-01-12T02:40:54.682Z,87.10
2023-01-12T02:43:32.901Z,86.34
2023-01-12T02:46:12.191Z,86.51
2023-01-12T02:48:49.108Z,86.18
2023-01-12T02:51:29.663Z,86.24
2023-01-12T02:54:03.746Z,86.21
2023-01-12T02:56:34.897Z,86.44
2023-01-12T02:59:08.384Z,85.70
2023-01-12T03:01:37.594Z,86.00
2023-01-12T03:04:08.268Z,85.67
2023-01-12T03:07:01.225Z,86.02
2023-01-12T03:09:38.826Z,86.20
2023-01-12T03:12:18.270Z,86.03
2023-01-12T03:14:49.103Z,84.58
2023-01-12T03:17:31.180Z,85.89
2023-01-12T03:20:04.706Z,86.14
2023-01-12T03:22:36.628Z,85.78
2023-01-12T03:25:10.786Z,85.73
2023-01-12T03:27:45.184Z,86.98
2023-01-12T03:30:29.105Z,86.04
2023-01-12T03:32:56.499Z,84.96
2023-01-12T03:35:28.463Z,85.08
2023-01-12T03:38:01.207Z,85.64
2023-01-12T03:40:38.487Z,84.99
2023-01-12T03:43:22.895Z,85.00
2023-01-12T03:45:59.335Z,85.06
2023-01-12T03:48:33.229Z,85.01
2023-01-12T03:51:12.405Z,85.12
2023-01-12T03:53:42.381Z,86.80
2023-01-12T03:56:13.181Z,85.59
2023-01-12T03:58:41.700Z,85.45
2023-01-12T04:01:08.820Z,84.35
2023-01-12T04:03:36.004Z,85.80
2023-01-12T04:06:02.969Z,84.40
2023-01-12T04:08:29.889Z,85.66
2023-01-12T04:10:56.776Z,85.83
2023-01-12T04:13:23.764Z,85.75
2023-01-12T04:15:50.892Z,84.61
2023-01-12T04:18:18.052Z,84.76
2023-01-12T04:20:47.213Z,84.35
2023-01-12T04:23:14.290Z,84.63
2023-01-12T04:25:41.261Z,84.47
2023-01-12T04:28:08.163Z,84.12
2023-01-12T04:30:35.357Z,83.40
2023-01-12T04:33:08.384Z,84.36
2023-01-12T04:35:35.548Z,85.37
2023-01-12T04:38:06.968Z,85.07
2023-01-12T04:40:33.981Z,85.36
2023-01-12T04:43:08.919Z,84.02
2023-01-12T04:45:41.100Z,83.68
2023-01-12T04:48:11.630Z,84.59
2023-01-12T04:50:39.773Z,83.92
2023-01-12T04:53:09.334Z,83.77
2023-01-12T04:55:37.674Z,85.26
2023-01-12T04:58:04.958Z,84.17
2023-01-12T05:00:32.521Z,85.06
2023-01-12T05:03:02.661Z,84.79
2023-01-12T05:05:34.039Z,84.92
2023-01-12T05:08:21.978Z,83.77
2023-01-12T05:10:56.395Z,84.16
2023-01-12T05:13:24.580Z,83.94
2023-01-12T05:15:51.602Z,84.41
2023-01-12T05:18:19.160Z,85.73
2023-01-12T05:20:46.367Z,84.98
2023-01-12T05:23:13.372Z,84.95
2023-01-12T05:25:40.403Z,84.59
2023-01-12T05:28:07.350Z,84.97
2023-01-12T05:30:34.468Z,84.01
2023-01-12T05:33:01.531Z,84.77
2023-01-12T05:35:28.554Z,85.61
2023-01-12T05:37:57.840Z,85.63
2023-01-12T05:40:25.316Z,85.94
2023-01-12T05:43:11.384Z,85.10
2023-01-12T05:45:38.417Z,85.09
2023-01-12T05:48:06.248Z,85.77
2023-01-12T05:50:33.182Z,85.46
2023-01-12T05:53:00.090Z,85.78
2023-01-12T05:55:27.252Z,85.24
2023-01-12T05:57:54.255Z,84.92
2023-01-12T06:00:21.408Z,84.66
2023-01-12T06:02:48.346Z,85.49
2023-01-12T06:05:15.463Z,85.33
2023-01-12T06:07:43.089Z,84.83
2023-01-12T06:10:11.089Z,85.29
2023-01-12T06:12:56.613Z,83.91
2023-01-12T06:15:23.688Z,84.16
2023-01-12T06:17:50.788Z,83.68
2023-01-12T06:20:17.811Z,84.28
2023-01-12T06:22:45.656Z,83.70
2023-01-12T06:25:13.147Z,83.71
2023-01-12T06:27:40.300Z,84.14
2023-01-12T06:30:09.129Z,84.01
2023-01-12T06:32:36.857Z,84.63
2023-01-12T06:35:17.938Z,84.72
2023-01-12T06:37:45.637Z,84.19
2023-01-12T06:40:13.266Z,84.61
2023-01-12T06:42:42.415Z,84.57
2023-01-12T06:45:10.775Z,84.46
2023-01-12T06:47:52.425Z,84.90
2023-01-12T06:50:19.792Z,84.70
2023-01-12T06:52:46.798Z,84.52
2023-01-12T06:55:13.796Z,84.66
2023-01-12T06:57:40.893Z,84.23
2023-01-12T07:00:09.380Z,84.79
2023-01-12T07:02:36.622Z,84.07
2023-01-12T07:05:04.602Z,84.25
2023-01-12T07:07:31.885Z,84.96
2023-01-12T07:09:58.995Z,84.29
2023-01-12T07:12:26.372Z,83.80
2023-01-12T07:14:53.352Z,84.35
2023-01-12T07:17:20.435Z,84.24
2023-01-12T07:19:48.761Z,84.61
2023-01-12T07:22:16.239Z,85.04
2023-01-12T07:24:43.563Z,85.20
2023-01-12T07:27:10.656Z,85.50
2023-01-12T07:29:37.715Z,86.21
2023-01-12T07:32:05.211Z,85.83
2023-01-12T07:34:32.452Z,86.06
2023-01-12T07:36:59.596Z,85.27
2023-01-12T07:39:26.728Z,84.75
2023-01-12T07:42:12.378Z,85.07
2023-01-12T07:44:40.812Z,84.90
2023-01-12T07:47:08.294Z,85.34
2023-01-12T07:49:35.370Z,84.55
2023-01-12T07:52:03.721Z,85.01
2023-01-12T07:54:30.963Z,84.84
2023-01-12T07:56:59.120Z,85.05
2023-01-12T07:59:27.691Z,86.16
2023-01-12T08:01:55.175Z,85.99
2023-01-12T08:04:23.096Z,86.17
2023-01-12T08:06:50.097Z,86.90
2023-01-12T08:09:17.153Z,86.86
2023-01-12T08:11:47.058Z,87.22
2023-01-12T08:14:26.466Z,87.00
2023-01-12T08:16:58.600Z,87.85
2023-01-12T08:19:32.439Z,87.63
2023-01-12T08:22:04.013Z,87.56
2023-01-12T08:27:21.653Z,88.64
2023-01-12T08:29:53.297Z,88.09
2023-01-12T08:32:20.934Z,89.44
2023-01-12T08:34:51.681Z,89.92
2023-01-12T08:37:22.583Z,89.35
2023-01-12T08:39:50.891Z,88.71
2023-01-12T08:42:19.067Z,88.31
2023-01-12T08:44:46.593Z,88.36
2023-01-12T08:47:23.170Z,88.23
2023-01-12T08:49:50.396Z,88.48
2023-01-12T08:52:17.405Z,88.11
2023-01-12T08:54:44.735Z,87.28
2023-01-12T08:57:11.828Z,87.34
2023-01-12T08:59:41.007Z,87.46
2023-01-12T09:02:08.400Z,88.34
2023-01-12T09:04:45.606Z,88.84
2023-01-12T09:07:13.449Z,89.10
2023-01-12T09:12:24.196Z,88.19
2023-01-12T09:14:52.429Z,88.79
2023-01-12T09:17:19.586Z,88.07
2023-01-12T09:19:50.255Z,88.01
2023-01-12T09:22:17.795Z,88.60
2023-01-12T09:24:45.872Z,88.62
2023-01-12T09:27:12.932Z,88.43
2023-01-12T09:29:39.938Z,88.02
2023-01-12T09:32:07.125Z,88.44
2023-01-12T09:34:34.326Z,88.75
2023-01-12T09:37:02.003Z,89.09
2023-01-12T09:39:29.060Z,88.62
2023-01-12T09:42:17.227Z,89.39
2023-01-12T09:45:10.431Z,89.34
2023-01-12T09:47:55.497Z,88.64
2023-01-12T09:50:33.129Z,89.30
2023-01-12T09:53:11.956Z,89.50
2023-01-12T09:55:54.474Z,88.47
2023-01-12T09:58:35.911Z,89.03
2023-01-12T10:01:24.158Z,88.13
2023-01-12T10:03:56.176Z,89.11
2023-01-12T10:06:23.616Z,88.37
2023-01-12T10:08:56.089Z,88.38
2023-01-12T10:11:53.832Z,88.15
2023-01-12T10:14:32.944Z,89.15
2023-01-12T10:17:51.298Z,88.55
2023-01-12T10:20:37.970Z,87.40
2023-01-12T10:23:07.987Z,87.72
2023-01-12T10:25:45.707Z,86.75
2023-01-12T10:28:26.015Z,87.98
2023-01-12T10:30:56.381Z,88.07
2023-01-12T10:33:29.642Z,87.49
2023-01-12T10:36:19.879Z,88.26
2023-01-12T10:39:04.053Z,87.77
2023-01-12T10:41:35.292Z,87.03
2023-01-12T10:44:05.225Z,88.79
2023-01-12T10:46:34.086Z,87.06
2023-01-12T10:49:21.897Z,87.97
2023-01-12T10:51:50.342Z,87.14
2023-01-12T10:54:21.327Z,87.99
2023-01-12T10:57:14.161Z,86.54
2023-01-12T10:59:42.009Z,84.67
2023-01-12T11:02:09.205Z,86.06
2023-01-12T11:04:41.360Z,87.58
2023-01-12T11:07:19.236Z,85.57
2023-01-12T11:09:47.029Z,85.37
2023-01-12T11:12:31.310Z,85.74
2023-01-12T11:15:19.038Z,85.24
2023-01-12T11:17:56.666Z,84.41
2023-01-12T11:20:38.351Z,83.02
2023-01-12T11:23:39.592Z,84.40
2023-01-12T11:26:29.058Z,83.47
2023-01-12T11:29:03.181Z,83.80
2023-01-12T11:31:39.547Z,82.53
2023-01-12T11:34:20.112Z,83.58
2023-01-12T11:36:55.879Z,82.17
2023-01-12T11:39:24.725Z,84.21
2023-01-12T11:42:21.917Z,84.15
2023-01-12T11:45:18.247Z,82.61
2023-01-12T11:47:53.270Z,82.39
2023-01-12T11:50:39.994Z,82.80
2023-01-12T11:53:20.570Z,83.79
2023-01-12T11:56:06.795Z,83.10
2023-01-12T11:59:00.264Z,83.40
2023-01-12T12:01:48.949Z,83.28
2023-01-12T12:04:56.242Z,83.91
2023-01-12T12:07:48.619Z,84.09
2023-01-12T12:10:22.719Z,85.39
2023-01-12T12:12:49.643Z,85.26
2023-01-12T12:15:43.086Z,85.50
2023-01-12T12:18:34.362Z,85.99
2023-01-12T12:21:11.019Z,85.37
2023-01-12T12:23:54.653Z,86.38
2023-01-12T12:26:34.795Z,86.19
2023-01-12T12:29:04.961Z,86.07
2023-01-12T12:32:09.403Z,87.13
2023-01-12T12:34:52.212Z,86.97
2023-01-12T12:37:37.440Z,87.39
2023-01-12T12:40:17.577Z,86.58
2023-01-12T12:43:12.724Z,86.44
2023-01-12T12:45:45.937Z,86.98
2023-01-12T12:48:22.568Z,87.06
2023-01-12T12:51:08.683Z,86.28
2023-01-12T12:53:42.238Z,86.58
2023-01-12T12:56:13.175Z,86.68
2023-01-12T12:58:51.394Z,86.57
2023-01-12T13:01:21.955Z,86.98
2023-01-12T13:03:51.370Z,86.47
2023-01-12T13:06:21.397Z,86.90
2023-01-12T13:08:57.050Z,87.17
2023-01-12T13:11:53.823Z,87.77
2023-01-12T13:15:04.286Z,87.18
2023-01-12T13:17:32.635Z,86.57
2023-01-12T13:20:16.622Z,86.46
2023-01-12T13:22:51.585Z,86.49
2023-01-12T13:25:30.503Z,85.75
2023-01-12T13:31:56.887Z,86.45
2023-01-12T13:34:32.835Z,85.71
2023-01-12T13:38:15.318Z,86.79
2023-01-12T13:40:55.565Z,85.35
2023-01-12T13:43:35.126Z,85.18
2023-01-12T13:46:14.806Z,85.75
2023-01-12T13:56:04.829Z,86.51
2023-01-12T13:58:40.165Z,87.08
2023-01-12T14:01:19.254Z,85.81
2023-01-12T14:03:57.932Z,87.22
2023-01-12T14:06:27.795Z,86.26
2023-01-12T14:09:05.887Z,86.09
2023-01-12T14:11:44.730Z,86.61
2023-01-12T14:15:05.414Z,86.94
2023-01-12T14:17:49.726Z,86.51
2023-01-12T14:20:26.200Z,86.61
2023-01-12T14:23:14.557Z,86.74
2023-01-12T14:25:42.666Z,85.70
2023-01-12T14:28:20.458Z,85.84
2023-01-12T14:30:51.145Z,84.72
2023-01-12T14:33:23.837Z,84.28
2023-01-12T14:35:55.619Z,83.92
2023-01-12T14:38:26.716Z,83.47
2023-01-12T14:40:53.384Z,83.60
2023-01-12T14:43:39.299Z,82.56
2023-01-12T14:46:24.820Z,81.54
2023-01-12T14:49:03.266Z,82.60
2023-01-12T14:51:38.999Z,82.47
2023-01-12T14:54:08.847Z,82.32
2023-01-12T14:56:49.039Z,81.89
2023-01-12T14:59:25.058Z,81.44
2023-01-12T15:01:53.155Z,81.20
2023-01-12T15:04:24.211Z,80.95
2023-01-12T15:07:06.202Z,81.34
2023-01-12T15:09:51.186Z,81.96
2023-01-12T15:12:30.061Z,81.72
2023-01-12T15:15:25.538Z,81.76
2023-01-12T15:18:13.684Z,81.99
2023-01-12T15:21:02.010Z,81.79
2023-01-12T15:23:52.529Z,82.27
2023-01-12T15:26:20.278Z,83.65
2023-01-12T15:28:48.954Z,83.32
2023-01-12T15:31:36.584Z,83.44
2023-01-12T15:34:05.168Z,83.56
2023-01-12T15:36:32.016Z,83.09
2023-01-12T15:38:58.919Z,83.41
2023-01-12T15:41:47.606Z,83.37
2023-01-12T15:44:19.575Z,83.67
2023-01-12T15:46:46.876Z,84.79
2023-01-12T15:49:14.768Z,84.49
2023-01-12T15:51:44.432Z,84.57
2023-01-12T15:54:13.827Z,83.99
2023-01-12T15:56:40.927Z,83.88
2023-01-12T15:59:07.867Z,83.45
2023-01-12T16:01:41.702Z,83.78
2023-01-12T16:07:09.690Z,83.78
2023-01-12T16:09:36.582Z,83.66
2023-01-12T16:12:03.494Z,83.06
2023-01-12T16:14:30.289Z,82.89
2023-01-12T16:16:57.453Z,83.14
2023-01-12T16:19:24.436Z,83.97
2023-01-12T16:21:55.360Z,85.35
2023-01-12T16:24:24.822Z,85.19
2023-01-12T16:26:51.578Z,85.38
2023-01-12T16:29:19.424Z,86.00
2023-01-12T16:31:46.350Z,86.37
2023-01-12T16:34:13.796Z,86.43
2023-01-12T16:36:41.797Z,86.64
2023-01-12T16:39:10.832Z,86.13
2023-01-12T16:41:37.710Z,87.00
2023-01-12T16:44:04.662Z,85.84
2023-01-12T16:46:31.410Z,85.45
2023-01-12T16:48:58.823Z,85.70
2023-01-12T16:51:25.964Z,85.52
2023-01-12T16:53:55.254Z,85.88
2023-01-12T16:56:22.146Z,85.77
2023-01-12T16:58:48.997Z,84.89
2023-01-12T17:01:19.171Z,85.32
2023-01-12T17:03:46.672Z,84.75
2023-01-12T17:06:19.396Z,84.73
2023-01-12T17:08:46.267Z,85.23
2023-01-12T17:11:16.272Z,85.39
2023-01-12T17:13:43.468Z,86.58
2023-01-12T17:16:11.834Z,87.19
2023-01-12T17:18:39.502Z,87.51
2023-01-12T17:21:11.429Z,87.16
2023-01-12T17:23:43.354Z,87.10
2023-01-12T17:26:18.919Z,87.29
2023-01-12T17:28:47.023Z,86.40
2023-01-12T17:31:17.548Z,86.92
2023-01-12T17:33:44.883Z,86.69
2023-01-12T17:36:12.964Z,86.95
2023-01-12T17:38:40.280Z,86.38
2023-01-12T17:41:33.330Z,85.96
2023-01-12T17:44:04.908Z,86.19
2023-01-12T17:46:32.396Z,87.20
2023-01-12T17:49:06.186Z,87.49
2023-01-12T17:51:33.822Z,88.86
2023-01-12T17:54:03.700Z,89.51
2023-01-12T17:56:32.992Z,89.66
2023-01-12T17:59:00.722Z,89.24
2023-01-12T18:01:30.158Z,88.59
2023-01-12T18:03:58.347Z,89.32
2023-01-12T18:06:26.902Z,88.85
2023-01-12T18:08:56.816Z,89.17
2023-01-12T18:11:24.510Z,89.12
2023-01-12T18:13:51.714Z,89.87
2023-01-12T18:16:18.586Z,89.67
2023-01-12T18:18:46.305Z,90.40
2023-01-12T18:21:16.305Z,90.29
2023-01-12T18:23:43.685Z,90.83
2023-01-12T18:26:16.463Z,90.93
2023-01-12T18:28:43.672Z,91.31
2023-01-12T18:31:16.868Z,90.51
2023-01-12T18:33:45.410Z,92.15
2023-01-12T18:36:18.095Z,92.35
2023-01-12T18:38:45.471Z,92.69
2023-01-12T18:41:31.270Z,92.17
2023-01-12T18:44:00.924Z,91.80
2023-01-12T18:46:57.188Z,91.69
2023-01-12T18:49:26.389Z,91.29
2023-01-12T18:52:11.840Z,91.01
2023-01-12T18:54:45.381Z,90.66
2023-01-12T18:57:14.656Z,89.08
2023-01-12T18:59:42.125Z,89.21
2023-01-12T19:02:11.697Z,88.70
2023-01-12T19:04:50.982Z,88.07
2023-01-12T19:07:39.380Z,87.67
2023-01-12T19:10:06.741Z,87.55
2023-01-12T19:12:34.100Z,87.25
2023-01-12T19:15:19.415Z,87.53
2023-01-12T19:17:46.156Z,87.56
2023-01-12T19:20:17.600Z,87.30
2023-01-12T19:23:03.420Z,86.84
2023-01-12T19:25:48.941Z,86.49
2023-01-12T19:28:32.876Z,87.25
2023-01-12T19:31:01.483Z,86.47
2023-01-12T19:33:28.744Z,86.53
2023-01-12T19:35:55.615Z,86.80
2023-01-12T19:38:22.824Z,86.82
2023-01-12T19:40:54.314Z,86.74
2023-01-12T19:43:26.294Z,87.50
2023-01-12T19:45:58.962Z,88.21
2023-01-12T19:48:26.844Z,87.65
2023-01-12T19:50:54.518Z,87.95
2023-01-12T19:53:28.784Z,87.49
2023-01-12T19:55:55.576Z,87.82
2023-01-12T19:58:22.503Z,87.98
2023-01-12T20:00:50.176Z,87.57
2023-01-12T20:03:19.945Z,86.95
2023-01-12T20:05:48.784Z,85.83
2023-01-12T20:08:15.737Z,86.08
2023-01-12T20:10:42.563Z,87.59
2023-01-12T20:13:12.268Z,88.92
2023-01-12T20:15:40.682Z,89.72
2023-01-12T20:18:08.805Z,90.42
2023-01-12T20:20:36.161Z,90.48
2023-01-12T20:23:03.207Z,90.48
2023-01-12T20:25:30.239Z,90.47
2023-01-12T20:27:57.884Z,91.20
2023-01-12T20:30:37.391Z,91.51
2023-01-12T20:33:06.552Z,92.63
2023-01-12T20:35:35.178Z,93.19
2023-01-12T20:38:03.789Z,92.90
2023-01-12T20:40:30.638Z,92.97
2023-01-12T20:42:57.470Z,92.72
2023-01-12T20:45:24.629Z,92.18
2023-01-12T20:47:51.426Z,92.66
2023-01-12T20:50:19.519Z,92.15
2023-01-12T20:52:51.102Z,92.44
2023-01-12T20:55:18.110Z,92.25
2023-01-12T20:57:45.307Z,92.31
2023-01-12T21:00:13.602Z,92.42
2023-01-12T21:02:40.755Z,93.50
2023-01-12T21:05:09.271Z,94.32
2023-01-12T21:07:36.271Z,94.44
2023-01-12T21:10:03.471Z,94.56
2023-01-12T21:12:30.803Z,94.24
2023-01-12T21:14:58.624Z,94.39
2023-01-12T21:17:26.841Z,94.27
2023-01-12T21:19:53.790Z,93.74
2023-01-12T21:22:20.969Z,93.37
2023-01-12T21:24:47.955Z,93.15
2023-01-12T21:27:14.934Z,92.92
2023-01-12T21:29:41.699Z,92.16
2023-01-12T21:32:08.601Z,91.60
2023-01-12T21:34:35.350Z,91.13
2023-01-12T21:37:02.620Z,90.58
2023-01-12T21:39:29.541Z,90.65
2023-01-12T21:42:14.673Z,90.40
2023-01-12T21:44:41.507Z,89.27
2023-01-12T21:47:08.268Z,89.25
2023-01-12T21:49:35.106Z,89.01
2023-01-12T21:52:01.912Z,89.44
2023-01-12T21:54:29.066Z,87.82
2023-01-12T21:56:55.919Z,88.91
2023-01-12T21:59:22.701Z,87.71
2023-01-12T22:01:49.571Z,88.26
2023-01-12T22:04:16.511Z,87.75
2023-01-12T22:06:43.340Z,86.82
2023-01-12T22:09:10.310Z,86.85
2023-01-12T22:11:37.030Z,86.87
2023-01-12T22:14:03.792Z,85.92
2023-01-12T22:16:30.806Z,85.93
2023-01-12T22:18:57.591Z,84.52
2023-01-12T22:21:24.425Z,84.70
2023-01-12T22:23:51.310Z,84.90
2023-01-12T22:26:19.245Z,84.58
2023-01-12T22:28:48.057Z,84.82
2023-01-12T22:31:18.922Z,85.14
2023-01-12T22:33:47.204Z,85.11
2023-01-12T22:36:14.628Z,84.57
2023-01-12T22:38:42.874Z,84.50
2023-01-12T22:41:11.824Z,84.66
2023-01-12T22:43:42.671Z,85.55
2023-01-12T22:46:21.882Z,84.54
2023-01-12T22:48:54.256Z,83.46
2023-01-12T22:51:22.592Z,84.36
2023-01-12T22:53:49.390Z,83.35
2023-01-12T22:56:16.995Z,83.02
2023-01-12T22:58:48.459Z,83.14
2023-01-12T23:01:17.263Z,83.56
2023-01-12T23:03:44.313Z,83.25
2023-01-12T23:06:13.232Z,82.87
2023-01-12T23:08:40.793Z,82.50
2023-01-12T23:11:19.156Z,82.28
2023-01-12T23:13:46.422Z,82.08
2023-01-12T23:16:16.219Z,81.89
2023-01-12T23:18:44.984Z,82.16
2023-01-12T23:21:20.475Z,81.18
2023-01-12T23:23:53.157Z,81.81
2023-01-12T23:26:25.734Z,80.53
2023-01-12T23:28:56.032Z,81.64
2023-01-12T23:31:25.714Z,80.47
2023-01-12T23:33:53.070Z,80.85
2023-01-12T23:36:22.542Z,80.25
2023-01-12T23:38:54.543Z,80.63
2023-01-12T23:41:23.345Z,81.57
2023-01-12T23:43:51.384Z,81.58
2023-01-12T23:46:22.700Z,81.86
2023-01-12T23:48:55.469Z,82.42
2023-01-12T23:51:23.713Z,81.19
2023-01-12T23:53:54.999Z,83.08
2023-01-12T23:56:22.334Z,83.92
2023-01-12T23:58:49.361Z,83.89
